createdAt,value
2017-07-20T00:00:13.680Z,79.10
2017-07-20T00:02:40.190Z,79.00
2017-07-20T00:05:06.672Z,79.20
2017-07-20T00:07:33.601Z,79.20
2017-07-20T00:10:01.037Z,79.60
2017-07-20T00:12:27.487Z,80.00
2017-07-20T00:14:54.665Z,80.50
2017-07-20T00:17:22.015Z,80.50
2017-07-20T00:19:48.443Z,81.00
2017-07-20T00:22:14.915Z,81.40
2017-07-20T00:24:41.345Z,81.90
2017-07-20T00:27:07.815Z,82.10
2017-07-20T00:29:34.267Z,82.30
2017-07-20T00:32:00.703Z,82.70
2017-07-20T00:34:27.141Z,83.10
2017-07-20T00:36:53.552Z,83.60
2017-07-20T00:39:19.976Z,83.90
2017-07-20T00:41:46.506Z,83.80
2017-07-20T00:44:12.959Z,83.80
2017-07-20T00:46:39.378Z,84.00
2017-07-20T00:49:05.838Z,83.60
2017-07-20T00:51:32.261Z,82.90
2017-07-20T00:53:59.007Z,83.00
2017-07-20T00:56:25.438Z,83.20
2017-07-20T00:58:52.599Z,84.40
2017-07-20T01:01:19.790Z,83.60
2017-07-20T01:03:46.227Z,83.60
2017-07-20T01:06:13.391Z,84.00
2017-07-20T01:08:40.290Z,83.90
2017-07-20T01:11:07.325Z,84.30
2017-07-20T01:13:33.777Z,84.80
2017-07-20T01:16:00.224Z,85.60
2017-07-20T01:18:26.669Z,86.20
2017-07-20T01:20:53.079Z,86.20
2017-07-20T01:23:19.491Z,87.00
2017-07-20T01:25:45.923Z,87.90
2017-07-20T01:28:12.446Z,87.20
2017-07-20T01:30:39.001Z,87.40
2017-07-20T01:33:05.459Z,87.00
2017-07-20T01:35:31.912Z,85.80
2017-07-20T01:37:58.370Z,85.80
2017-07-20T01:40:24.858Z,86.00
2017-07-20T01:42:51.306Z,85.80
2017-07-20T01:45:17.800Z,86.10
2017-07-20T01:47:45.102Z,86.40
2017-07-20T01:50:12.330Z,88.30
2017-07-20T01:52:38.846Z,87.00
2017-07-20T01:55:05.408Z,88.30
2017-07-20T01:57:31.878Z,89.10
2017-07-20T01:59:58.331Z,90.00
2017-07-20T02:02:24.836Z,90.60
2017-07-20T02:04:51.295Z,91.00
2017-07-20T02:07:17.767Z,91.60
2017-07-20T02:09:45.021Z,92.10
2017-07-20T02:12:11.478Z,92.20
2017-07-20T02:14:37.925Z,92.50
2017-07-20T02:17:04.377Z,92.90
2017-07-20T02:19:30.829Z,93.20
2017-07-20T02:21:57.343Z,93.30
2017-07-20T02:24:23.773Z,93.50
2017-07-20T02:26:50.216Z,93.50
2017-07-20T02:29:17.370Z,93.70
2017-07-20T02:31:44.275Z,93.80
2017-07-20T02:34:11.449Z,94.00
2017-07-20T02:36:38.617Z,94.00
2017-07-20T02:39:05.816Z,94.10
2017-07-20T02:41:32.274Z,94.10
2017-07-20T02:43:58.824Z,94.20
2017-07-20T02:46:25.260Z,93.90
2017-07-20T02:48:52.428Z,94.10
2017-07-20T02:51:19.619Z,94.30
2017-07-20T02:53:46.818Z,93.90
2017-07-20T02:56:13.254Z,93.80
2017-07-20T02:58:39.710Z,94.20
2017-07-20T03:01:06.172Z,94.30
2017-07-20T03:03:32.622Z,93.90
2017-07-20T03:05:59.015Z,93.40
2017-07-20T03:08:25.499Z,93.60
2017-07-20T03:10:52.264Z,93.60
2017-07-20T03:13:18.704Z,94.00
2017-07-20T03:15:45.093Z,94.20
2017-07-20T03:18:12.293Z,94.20
2017-07-20T03:20:38.745Z,94.30
2017-07-20T03:23:05.175Z,94.40
2017-07-20T03:25:32.336Z,95.10
2017-07-20T03:27:58.798Z,94.80
2017-07-20T03:30:25.280Z,94.70
2017-07-20T03:32:51.746Z,94.70
2017-07-20T03:35:18.190Z,95.00
2017-07-20T03:37:44.640Z,95.00
2017-07-20T03:40:11.821Z,95.00
2017-07-20T03:42:38.248Z,95.00
2017-07-20T03:45:04.680Z,94.80
2017-07-20T03:47:31.187Z,94.60
2017-07-20T03:49:57.650Z,95.20
2017-07-20T03:52:24.114Z,95.10
2017-07-20T03:54:51.010Z,94.60
2017-07-20T03:57:17.463Z,94.50
2017-07-20T03:59:43.901Z,94.50
2017-07-20T04:02:10.436Z,94.50
2017-07-20T04:04:36.860Z,94.40
2017-07-20T04:07:03.290Z,94.50
2017-07-20T04:09:29.804Z,94.50
2017-07-20T04:11:56.240Z,94.50
2017-07-20T04:14:23.388Z,94.10
2017-07-20T04:16:49.825Z,94.10
2017-07-20T04:19:16.217Z,94.30
2017-07-20T04:21:42.649Z,93.70
2017-07-20T04:24:09.086Z,93.30
2017-07-20T04:26:35.542Z,92.10
2017-07-20T04:29:01.972Z,90.60
2017-07-20T04:31:28.405Z,86.60
2017-07-20T04:33:54.826Z,85.00
2017-07-20T04:36:21.234Z,83.80
2017-07-20T04:38:47.695Z,82.90
2017-07-20T04:41:14.122Z,82.90
2017-07-20T04:43:40.568Z,84.20
2017-07-20T04:46:06.996Z,84.90
2017-07-20T04:48:34.052Z,85.40
2017-07-20T04:51:00.485Z,84.50
2017-07-20T04:53:26.923Z,81.40
2017-07-20T04:55:54.093Z,75.70
2017-07-20T04:58:21.289Z,71.80
2017-07-20T05:00:47.724Z,71.80
2017-07-20T05:03:14.173Z,67.80
2017-07-20T05:05:41.345Z,64.80
2017-07-20T05:08:08.638Z,63.60
2017-07-20T05:10:35.119Z,63.50
2017-07-20T05:13:01.549Z,62.50
2017-07-20T05:15:28.723Z,59.10
2017-07-20T05:17:55.283Z,59.00
2017-07-20T05:20:21.715Z,58.10
2017-07-20T05:22:48.156Z,56.70
2017-07-20T05:25:15.077Z,55.50
2017-07-20T05:27:41.514Z,55.10
2017-07-20T05:30:08.074Z,55.40
2017-07-20T05:32:34.524Z,55.80
2017-07-20T05:35:01.726Z,55.40
2017-07-20T05:37:28.686Z,55.40
2017-07-20T05:39:55.832Z,54.40
2017-07-20T05:42:22.393Z,52.70
2017-07-20T05:44:49.621Z,49.30
2017-07-20T05:47:16.035Z,49.30
2017-07-20T05:49:42.803Z,48.70
2017-07-20T05:52:09.223Z,48.00
2017-07-20T05:54:35.679Z,47.20
2017-07-20T05:57:02.135Z,46.20
2017-07-20T05:59:28.577Z,47.40
2017-07-20T06:01:55.077Z,46.50
2017-07-20T06:04:21.497Z,45.40
2017-07-20T06:06:47.937Z,45.60
2017-07-20T06:09:14.393Z,45.50
2017-07-20T06:11:40.830Z,44.70
2017-07-20T06:14:07.835Z,42.90
2017-07-20T06:16:34.260Z,41.60
2017-07-20T06:19:00.703Z,39.90
2017-07-20T06:21:27.134Z,37.60
2017-07-20T06:23:53.564Z,35.80
2017-07-20T06:26:19.976Z,35.80
2017-07-20T06:28:46.416Z,34.80
2017-07-20T06:31:27.744Z,34.40
2017-07-20T06:33:54.186Z,33.00
2017-07-20T06:36:20.630Z,32.10
2017-07-20T06:38:47.058Z,31.30
2017-07-20T06:41:13.469Z,30.50
2017-07-20T06:43:39.908Z,30.30
2017-07-20T06:46:06.367Z,30.00
2017-07-20T06:48:32.808Z,29.60
2017-07-20T06:50:59.251Z,28.80
2017-07-20T06:53:25.699Z,27.70
2017-07-20T06:55:52.137Z,26.90
2017-07-20T06:58:19.328Z,26.70
2017-07-20T07:00:45.773Z,26.60
2017-07-20T07:03:12.743Z,25.80
2017-07-20T07:05:39.206Z,25.60
2017-07-20T07:08:05.753Z,25.30
2017-07-20T07:10:32.720Z,25.90
2017-07-20T07:12:59.209Z,25.30
2017-07-20T07:15:25.840Z,26.50
2017-07-20T07:17:52.914Z,25.90
2017-07-20T07:20:19.468Z,25.70
2017-07-20T07:22:46.846Z,25.00
2017-07-20T07:25:13.320Z,24.90
2017-07-20T07:27:39.759Z,25.20
2017-07-20T07:30:06.317Z,24.90
2017-07-20T07:32:32.874Z,24.70
2017-07-20T07:34:59.432Z,25.40
2017-07-20T07:37:25.940Z,26.50
2017-07-20T07:39:52.425Z,28.00
2017-07-20T07:42:19.662Z,31.50
2017-07-20T07:44:46.253Z,30.80
2017-07-20T07:47:12.740Z,31.70
2017-07-20T07:49:39.187Z,32.90
2017-07-20T07:52:06.357Z,35.50
2017-07-20T07:54:33.549Z,33.90
2017-07-20T07:57:00.026Z,33.80
2017-07-20T07:59:26.436Z,32.70
2017-07-20T08:01:53.609Z,33.10
2017-07-20T08:04:20.808Z,34.30
2017-07-20T08:06:47.236Z,34.30
2017-07-20T08:09:14.426Z,32.40
2017-07-20T08:11:40.846Z,32.40
2017-07-20T08:14:07.296Z,31.30
2017-07-20T08:16:33.740Z,31.50
2017-07-20T08:19:00.201Z,31.60
2017-07-20T08:21:26.647Z,31.30
2017-07-20T08:23:53.130Z,30.90
2017-07-20T08:26:19.591Z,30.70
2017-07-20T08:28:46.619Z,30.20
2017-07-20T08:31:13.096Z,30.50
2017-07-20T08:33:39.586Z,31.40
2017-07-20T08:36:06.120Z,32.60
2017-07-20T08:38:33.337Z,33.10
2017-07-20T08:41:14.693Z,33.10
2017-07-20T08:43:41.872Z,36.10
2017-07-20T08:46:09.035Z,36.90
2017-07-20T08:48:35.447Z,36.80
2017-07-20T08:51:01.897Z,38.10
2017-07-20T08:53:28.333Z,39.10
2017-07-20T08:55:54.808Z,39.70
2017-07-20T08:58:21.238Z,40.10
2017-07-20T09:00:48.284Z,41.30
2017-07-20T09:03:14.767Z,41.70
2017-07-20T09:05:41.216Z,42.10
2017-07-20T09:08:08.398Z,42.50
2017-07-20T09:10:34.850Z,42.50
2017-07-20T09:13:16.209Z,42.90
2017-07-20T09:15:42.626Z,43.70
2017-07-20T09:18:09.246Z,43.50
2017-07-20T09:20:35.699Z,43.90
2017-07-20T09:23:03.035Z,43.90
2017-07-20T09:25:29.691Z,43.90
2017-07-20T09:27:56.139Z,43.40
2017-07-20T09:30:22.617Z,44.10
2017-07-20T09:32:49.053Z,44.50
2017-07-20T09:35:15.701Z,44.90
2017-07-20T09:37:42.568Z,45.20
2017-07-20T09:40:09.013Z,44.70
2017-07-20T09:42:35.494Z,44.80
2017-07-20T09:45:14.602Z,45.00
2017-07-20T09:47:41.046Z,45.10
2017-07-20T09:50:07.504Z,45.30
2017-07-20T09:52:34.276Z,45.70
2017-07-20T09:55:00.708Z,45.40
2017-07-20T09:57:27.996Z,45.40
2017-07-20T09:59:54.720Z,45.30
2017-07-20T10:02:21.172Z,45.70
2017-07-20T10:04:47.609Z,45.20
2017-07-20T10:07:14.335Z,45.50
2017-07-20T10:09:40.741Z,45.80
2017-07-20T10:12:07.246Z,46.10
2017-07-20T10:14:33.649Z,46.80
2017-07-20T10:17:00.114Z,46.00
2017-07-20T10:19:26.551Z,45.20
2017-07-20T10:21:52.987Z,44.50
2017-07-20T10:24:19.448Z,43.90
2017-07-20T10:26:46.441Z,43.80
2017-07-20T10:29:12.898Z,43.60
2017-07-20T10:31:39.797Z,43.90
2017-07-20T10:34:06.968Z,44.50
2017-07-20T10:36:34.263Z,44.10
2017-07-20T10:39:00.822Z,44.10
2017-07-20T10:41:27.283Z,44.00
2017-07-20T10:43:54.047Z,44.00
2017-07-20T10:46:20.459Z,45.10
2017-07-20T10:48:46.962Z,45.40
2017-07-20T10:51:13.446Z,44.40
2017-07-20T10:53:39.904Z,43.60
2017-07-20T10:56:07.040Z,43.40
2017-07-20T10:58:33.488Z,43.40
2017-07-20T11:01:00.032Z,43.40
2017-07-20T11:03:27.212Z,44.00
2017-07-20T11:05:54.373Z,43.80
2017-07-20T11:08:21.569Z,43.50
2017-07-20T11:10:48.018Z,44.10
2017-07-20T11:13:15.299Z,42.60
2017-07-20T11:15:41.768Z,42.60
2017-07-20T11:18:08.314Z,42.70
2017-07-20T11:20:34.762Z,44.10
2017-07-20T11:23:01.183Z,43.30
2017-07-20T11:25:27.645Z,43.90
2017-07-20T11:27:54.737Z,44.50
2017-07-20T11:30:21.873Z,45.20
2017-07-20T11:32:48.306Z,45.20
2017-07-20T11:35:14.763Z,45.00
2017-07-20T11:37:41.226Z,44.50
2017-07-20T11:40:07.679Z,44.50
2017-07-20T11:42:34.086Z,44.50
2017-07-20T11:45:01.255Z,45.30
2017-07-20T11:47:28.424Z,46.20
2017-07-20T11:49:56.040Z,46.00
2017-07-20T11:52:22.464Z,45.80
2017-07-20T11:54:49.636Z,46.30
2017-07-20T11:57:16.418Z,46.80
2017-07-20T11:59:42.977Z,47.60
2017-07-20T12:02:09.442Z,48.40
2017-07-20T12:04:36.241Z,48.60
2017-07-20T12:07:02.755Z,47.60
2017-07-20T12:09:29.218Z,47.40
2017-07-20T12:11:56.063Z,47.60
2017-07-20T12:14:23.907Z,44.80
2017-07-20T12:16:51.442Z,44.70
2017-07-20T12:19:17.944Z,45.30
2017-07-20T12:21:44.461Z,44.80
2017-07-20T12:24:10.885Z,44.60
2017-07-20T12:26:37.341Z,44.50
2017-07-20T12:29:03.835Z,45.10
2017-07-20T12:31:30.300Z,45.90
2017-07-20T12:33:56.842Z,46.20
2017-07-20T12:36:23.401Z,46.00
2017-07-20T12:38:49.847Z,44.80
2017-07-20T12:41:16.314Z,45.10
2017-07-20T12:43:42.783Z,45.20
2017-07-20T12:46:09.214Z,46.30
2017-07-20T12:48:36.375Z,47.90
2017-07-20T12:51:17.718Z,47.90
2017-07-20T12:53:44.152Z,50.90
2017-07-20T12:56:10.596Z,54.50
2017-07-20T12:58:37.154Z,56.00
2017-07-20T13:01:18.646Z,57.80
2017-07-20T13:03:45.203Z,59.20
2017-07-20T13:06:11.665Z,59.70
2017-07-20T13:08:38.085Z,61.10
2017-07-20T13:11:04.629Z,61.60
2017-07-20T13:13:31.106Z,63.30
2017-07-20T13:15:57.535Z,62.60
2017-07-20T13:18:23.961Z,62.40
2017-07-20T13:20:50.409Z,61.50
2017-07-20T13:23:16.961Z,60.70
2017-07-20T13:25:43.389Z,59.90
2017-07-20T13:28:10.688Z,59.50
2017-07-20T13:30:37.159Z,59.70
2017-07-20T13:33:03.701Z,59.60
2017-07-20T13:35:30.156Z,59.60
2017-07-20T13:37:56.630Z,59.40
2017-07-20T13:40:23.157Z,58.90
2017-07-20T13:42:50.446Z,57.40
2017-07-20T13:45:16.911Z,57.40
2017-07-20T13:47:43.376Z,57.50
2017-07-20T13:50:09.918Z,56.90
2017-07-20T13:52:36.376Z,56.40
2017-07-20T13:55:03.037Z,56.50
2017-07-20T13:57:29.470Z,56.00
2017-07-20T13:59:56.052Z,55.10
2017-07-20T14:02:22.486Z,54.40
2017-07-20T14:04:50.163Z,52.60
2017-07-20T14:07:16.615Z,52.60
2017-07-20T14:09:43.207Z,52.20
2017-07-20T14:12:10.275Z,52.20
2017-07-20T14:14:36.915Z,52.00
2017-07-20T14:17:04.177Z,53.70
2017-07-20T14:19:30.637Z,53.10
2017-07-20T14:21:57.224Z,53.30
2017-07-20T14:24:24.582Z,53.10
2017-07-20T14:26:51.834Z,53.30
2017-07-20T14:29:18.303Z,53.20
2017-07-20T14:31:44.919Z,53.50
2017-07-20T14:34:11.374Z,53.90
2017-07-20T14:36:37.918Z,53.90
2017-07-20T14:39:04.477Z,52.90
2017-07-20T14:41:30.960Z,52.20
2017-07-20T14:43:57.407Z,51.80
2017-07-20T14:46:24.431Z,52.00
2017-07-20T14:48:51.636Z,51.90
2017-07-20T14:51:18.162Z,52.50
2017-07-20T14:53:44.765Z,51.90
2017-07-20T14:56:11.198Z,52.70
2017-07-20T14:58:37.852Z,52.90
2017-07-20T15:01:04.415Z,53.00
2017-07-20T15:03:30.975Z,53.10
2017-07-20T15:05:57.427Z,52.80
2017-07-20T15:08:23.847Z,52.00
2017-07-20T15:10:50.282Z,51.70
2017-07-20T15:13:17.111Z,51.20
2017-07-20T15:15:43.537Z,51.10
2017-07-20T15:18:10.747Z,51.50
2017-07-20T15:20:37.291Z,51.40
2017-07-20T15:23:03.752Z,51.60
2017-07-20T15:25:30.216Z,51.80
2017-07-20T15:27:56.712Z,52.00
2017-07-20T15:30:23.202Z,52.00
2017-07-20T15:32:50.374Z,52.60
2017-07-20T15:35:17.666Z,52.80
2017-07-20T15:37:44.220Z,52.80
2017-07-20T15:40:10.664Z,53.10
2017-07-20T15:42:37.852Z,52.60
2017-07-20T15:45:04.753Z,52.60
2017-07-20T15:47:31.287Z,53.00
2017-07-20T15:49:57.733Z,53.60
2017-07-20T15:52:24.222Z,54.00
2017-07-20T15:54:50.893Z,54.30
2017-07-20T15:57:17.363Z,54.80
2017-07-20T15:59:43.785Z,54.70
2017-07-20T16:02:10.327Z,55.00
2017-07-20T16:04:36.876Z,57.00
2017-07-20T16:07:03.362Z,61.30
2017-07-20T16:09:29.859Z,65.40
2017-07-20T16:11:56.268Z,65.40
2017-07-20T16:14:22.692Z,66.30
2017-07-20T16:16:49.868Z,73.60
2017-07-20T16:19:17.054Z,74.90
2017-07-20T16:21:43.502Z,74.90
2017-07-20T16:24:10.034Z,76.60
2017-07-20T16:26:37.186Z,76.20
2017-07-20T16:29:03.738Z,76.10
2017-07-20T16:31:30.168Z,76.30
2017-07-20T16:33:56.632Z,79.70
2017-07-20T16:36:23.177Z,81.90
2017-07-20T16:38:49.672Z,83.30
2017-07-20T16:41:16.172Z,84.40
2017-07-20T16:43:42.637Z,85.90
2017-07-20T16:46:09.189Z,86.60
2017-07-20T16:48:35.813Z,87.50
2017-07-20T16:51:02.405Z,87.10
2017-07-20T16:53:28.863Z,88.50
2017-07-20T16:55:55.313Z,89.10
2017-07-20T16:58:22.655Z,89.00
2017-07-20T17:00:49.198Z,88.80
2017-07-20T17:03:15.683Z,89.40
2017-07-20T17:05:42.883Z,89.30
2017-07-20T17:08:09.748Z,89.30
2017-07-20T17:10:36.256Z,89.40
2017-07-20T17:13:02.754Z,89.80
2017-07-20T17:15:30.142Z,89.70
2017-07-20T17:17:56.622Z,89.70
2017-07-20T17:20:23.055Z,89.60
2017-07-20T17:22:49.550Z,90.10
2017-07-20T17:25:16.588Z,89.90
2017-07-20T17:27:43.060Z,90.20
2017-07-20T17:30:09.485Z,90.40
2017-07-20T17:32:36.715Z,90.60
2017-07-20T17:35:03.751Z,90.50
2017-07-20T17:37:30.215Z,90.80
2017-07-20T17:39:56.653Z,91.20
2017-07-20T17:42:23.207Z,91.20
2017-07-20T17:44:49.657Z,91.30
2017-07-20T17:47:17.309Z,91.30
2017-07-20T17:49:43.781Z,91.30
2017-07-20T17:52:11.073Z,91.50
2017-07-20T17:54:37.589Z,91.50
2017-07-20T17:57:04.083Z,91.20
2017-07-20T17:59:30.648Z,91.10
2017-07-20T18:01:57.307Z,91.20
2017-07-20T18:04:23.767Z,91.40
2017-07-20T18:06:53.196Z,91.40
2017-07-20T18:09:20.180Z,91.40
2017-07-20T18:11:46.632Z,91.30
2017-07-20T18:14:13.232Z,91.40
2017-07-20T18:16:48.158Z,91.60
2017-07-20T18:19:21.585Z,91.20
2017-07-20T18:22:03.300Z,91.40
2017-07-20T18:24:30.568Z,91.80
2017-07-20T18:26:57.083Z,91.80
2017-07-20T18:29:24.338Z,91.70
2017-07-20T18:31:51.706Z,91.70
2017-07-20T18:34:20.103Z,91.40
2017-07-20T18:36:46.792Z,91.50
2017-07-20T18:39:13.937Z,91.50
2017-07-20T18:41:40.603Z,91.50
2017-07-20T18:44:07.099Z,91.40
2017-07-20T18:46:33.718Z,91.50
2017-07-20T18:49:00.680Z,91.60
2017-07-20T18:51:27.238Z,91.60
2017-07-20T18:53:53.706Z,91.50
2017-07-20T18:56:20.356Z,91.50
2017-07-20T18:58:47.569Z,91.50
2017-07-20T19:01:14.292Z,91.50
2017-07-20T19:03:40.828Z,91.40
2017-07-20T19:06:08.127Z,91.60
2017-07-20T19:08:34.681Z,91.30
2017-07-20T19:11:01.170Z,91.40
2017-07-20T19:13:27.802Z,91.30
2017-07-20T19:15:54.268Z,91.30
2017-07-20T19:18:20.764Z,91.20
2017-07-20T19:20:47.373Z,91.30
2017-07-20T19:23:14.240Z,91.40
2017-07-20T19:25:40.671Z,91.40
2017-07-20T19:28:07.879Z,91.70
2017-07-20T19:30:34.427Z,91.60
2017-07-20T19:33:00.962Z,91.60
2017-07-20T19:35:29.898Z,91.50
2017-07-20T19:37:56.455Z,91.40
2017-07-20T19:40:23.533Z,91.40
2017-07-20T19:42:50.294Z,91.40
2017-07-20T19:45:16.951Z,91.40
2017-07-20T19:47:43.513Z,91.60
2017-07-20T19:50:10.000Z,91.60
2017-07-20T19:52:36.827Z,91.90
2017-07-20T19:55:03.400Z,92.00
2017-07-20T19:57:29.944Z,92.10
2017-07-20T19:59:56.932Z,92.20
2017-07-20T20:02:23.480Z,92.20
2017-07-20T20:04:50.234Z,92.40
2017-07-20T20:07:16.792Z,92.50
2017-07-20T20:09:43.258Z,92.60
2017-07-20T20:12:09.734Z,92.50
2017-07-20T20:14:36.195Z,92.80
2017-07-20T20:17:02.722Z,92.90
2017-07-20T20:19:29.188Z,92.90
2017-07-20T20:21:55.734Z,93.00
2017-07-20T20:24:22.602Z,93.10
2017-07-20T20:26:49.061Z,93.10
2017-07-20T20:29:15.618Z,93.40
2017-07-20T20:31:42.150Z,93.20
2017-07-20T20:34:09.454Z,93.70
2017-07-20T20:36:35.938Z,93.70
2017-07-20T20:39:02.671Z,93.80
2017-07-20T20:41:29.132Z,93.80
2017-07-20T20:43:55.810Z,93.80
2017-07-20T20:46:22.251Z,93.80
2017-07-20T20:48:48.802Z,93.70
2017-07-20T20:51:15.299Z,93.90
2017-07-20T20:53:41.756Z,94.00
2017-07-20T20:56:08.370Z,94.00
2017-07-20T20:58:35.032Z,93.90
2017-07-20T21:01:03.065Z,94.10
2017-07-20T21:03:30.706Z,94.20
2017-07-20T21:05:57.176Z,94.20
2017-07-20T21:08:23.779Z,94.20
2017-07-20T21:10:50.384Z,94.10
2017-07-20T21:13:17.028Z,94.20
2017-07-20T21:15:44.209Z,94.60
2017-07-20T21:18:11.592Z,94.70
2017-07-20T21:20:38.105Z,94.70
2017-07-20T21:23:04.914Z,95.00
2017-07-20T21:25:31.472Z,95.00
2017-07-20T21:27:57.943Z,95.00
2017-07-20T21:30:24.486Z,95.20
2017-07-20T21:32:51.051Z,95.10
2017-07-20T21:35:17.500Z,95.00
2017-07-20T21:37:44.060Z,95.20
2017-07-20T21:40:10.455Z,95.30
2017-07-20T21:42:36.923Z,95.40
2017-07-20T21:45:03.435Z,95.30
2017-07-20T21:47:30.509Z,95.30
2017-07-20T21:49:57.057Z,95.40
2017-07-20T21:52:23.773Z,95.30
2017-07-20T21:54:50.195Z,95.30
2017-07-20T21:57:16.631Z,95.40
2017-07-20T21:59:43.070Z,95.40
2017-07-20T22:02:10.239Z,95.30
2017-07-20T22:04:37.399Z,95.10
2017-07-20T22:07:03.845Z,95.10
2017-07-20T22:09:30.301Z,94.90
2017-07-20T22:11:56.700Z,95.00
2017-07-20T22:14:23.257Z,95.00
2017-07-20T22:16:49.816Z,94.90
2017-07-20T22:19:16.258Z,95.00
2017-07-20T22:21:43.493Z,95.10
2017-07-20T22:24:09.996Z,95.00
2017-07-20T22:26:37.175Z,95.00
2017-07-20T22:29:03.588Z,95.00
2017-07-20T22:31:30.018Z,94.90
2017-07-20T22:33:56.452Z,94.90
2017-07-20T22:36:23.791Z,94.90
2017-07-20T22:38:50.207Z,94.80
2017-07-20T22:41:16.629Z,94.80
2017-07-20T22:43:43.069Z,94.70
2017-07-20T22:46:10.294Z,94.60
2017-07-20T22:48:36.714Z,94.60
2017-07-20T22:51:03.193Z,94.60
2017-07-20T22:53:29.671Z,94.60
2017-07-20T22:55:56.095Z,94.60
2017-07-20T22:58:22.568Z,94.50
2017-07-20T23:00:49.005Z,94.50
2017-07-20T23:03:15.409Z,94.50
2017-07-20T23:05:41.853Z,94.70
2017-07-20T23:08:08.281Z,94.70
2017-07-20T23:10:34.708Z,94.70
2017-07-20T23:13:01.886Z,94.60
2017-07-20T23:15:28.338Z,94.60
2017-07-20T23:17:55.519Z,94.50
2017-07-20T23:20:22.080Z,94.50
2017-07-20T23:22:48.632Z,94.50
2017-07-20T23:25:15.074Z,94.40
2017-07-20T23:27:42.364Z,94.70
2017-07-20T23:30:08.796Z,94.40
2017-07-20T23:32:35.224Z,94.30
2017-07-20T23:35:01.674Z,94.50
2017-07-20T23:37:28.582Z,95.00
2017-07-20T23:39:55.757Z,94.50
2017-07-20T23:42:23.043Z,94.80
2017-07-20T23:44:49.509Z,94.40
2017-07-20T23:47:16.059Z,94.50
2017-07-20T23:49:42.564Z,94.60
2017-07-20T23:52:08.989Z,94.40
2017-07-20T23:54:35.420Z,94.60
2017-07-20T23:57:02.611Z,94.40
2017-07-20T23:59:29.037Z,94.40
